Time;durP1;ratioP1;P1;durP2;ratioP2;P2;SDS_P1;SDS_P2;PMS_P1;PMS_P2;Temp;Humidity;BMP_temperature;BMP_pressure;BME280_temperature;BME280_humidity;BME280_pressure;Samples;Min_cycle;Max_cycle;Signal;HPM_P1;HPM_P2
2023/05/11 00:02:56;;;;;;;9.35;7.00;;;;;;;11.93;58.38;97864.13;10359262;28;20077;-51
2023/05/11 00:07:55;;;;;;;10.20;7.32;;;;;;;11.94;58.31;97867.59;10359956;28;20045;-52
2023/05/11 00:12:54;;;;;;;8.40;7.22;;;;;;;11.76;59.03;97874.63;10365704;28;20033;-53
2023/05/11 00:17:53;;;;;;;9.27;6.55;;;;;;;11.65;58.52;97848.66;10367503;28;20072;-52
2023/05/11 00:22:52;;;;;;;;;;;;;;;11.69;58.68;97875.50;10368361;28;20116;-52
2023/05/11 00:27:50;;;;;;;8.20;6.13;;;;;;;11.63;58.44;97863.38;10367562;28;20029;-52
2023/05/11 00:32:53;;;;;;;9.95;7.15;;;;;;;11.58;58.71;97864.28;10367885;28;20040;-52
2023/05/11 00:37:52;;;;;;;9.15;6.57;;;;;;;11.58;58.90;97857.34;10367627;28;20790;-52
2023/05/11 00:42:50;;;;;;;;;;;;;;;11.57;59.24;97855.63;10367647;28;20573;-53
2023/05/11 00:47:50;;;;;;;9.82;6.55;;;;;;;11.54;59.42;97862.56;10366274;28;20496;-52
2023/05/11 00:52:49;;;;;;;;;;;;;;;11.49;58.95;97866.91;10367864;28;20064;-52
2023/05/11 00:57:48;;;;;;;7.90;6.47;;;;;;;11.43;59.96;97870.38;10363819;28;19993;-53
2023/05/11 01:02:47;;;;;;;8.48;6.28;;;;;;;11.42;59.59;97856.53;10365044;28;20303;-52
2023/05/11 01:08:12;;;;;;;8.27;6.55;;;;;;;11.45;59.77;97855.66;10366473;28;20064;-52
2023/05/11 01:13:25;;;;;;;8.60;6.90;;;;;;;11.40;60.33;97853.06;10364776;28;20072;-52
2023/05/11 01:18:28;;;;;;;8.38;6.78;;;;;;;11.41;59.96;97849.59;10366140;28;20061;-51
2023/05/11 01:23:45;;;;;;;9.10;6.53;;;;;;;11.37;60.40;97852.22;10364650;28;20112;-53
2023/05/11 01:29:01;;;;;;;8.82;6.68;;;;;;;11.24;60.74;97860.06;10365283;28;20064;-53
2023/05/11 01:34:02;;;;;;;11.70;7.10;;;;;;;11.12;61.37;97841.00;10365121;28;20136;-52
2023/05/11 01:39:07;;;;;;;10.18;7.15;;;;;;;11.15;60.93;97869.56;10365104;28;20120;-52
2023/05/11 01:44:09;;;;;;;7.18;5.88;;;;;;;11.13;60.60;97858.34;10364750;28;20131;-52
2023/05/11 01:49:10;;;;;;;10.93;5.95;;;;;;;11.15;61.22;97861.78;10364233;28;20533;-53
2023/05/11 01:54:11;;;;;;;9.32;5.88;;;;;;;10.85;60.64;97809.00;10363977;28;20115;-52
2023/05/11 01:59:11;;;;;;;9.27;6.30;;;;;;;11.16;60.43;97859.19;10363809;28;20068;-52
2023/05/11 02:04:12;;;;;;;7.65;6.03;;;;;;;11.02;60.40;97855.75;10364108;28;20120;-52
2023/05/11 02:09:12;;;;;;;7.43;5.68;;;;;;;10.94;60.24;97858.34;10363624;28;20064;-52
2023/05/11 02:14:12;;;;;;;8.93;5.70;;;;;;;10.92;60.00;97865.28;10364395;28;20068;-53
2023/05/11 02:19:12;;;;;;;9.13;5.68;;;;;;;10.87;60.21;97861.81;10363558;28;20068;-53
2023/05/11 02:24:12;;;;;;;7.75;5.47;;;;;;;10.95;60.22;97856.63;10362813;28;20112;-50
2023/05/11 02:29:11;;;;;;;11.73;5.45;;;;;;;10.79;60.04;97832.34;10363646;28;20068;-52
2023/05/11 02:34:20;;;;;;;9.77;5.47;;;;;;;10.80;60.63;97827.19;10362119;28;20471;-53
2023/05/11 02:39:22;;;;;;;9.57;5.45;;;;;;;10.92;60.48;97843.66;10363497;28;20069;-52
2023/05/11 02:44:26;;;;;;;8.40;5.20;;;;;;;10.83;60.12;97849.66;10364658;28;20119;-52
2023/05/11 02:49:28;;;;;;;12.52;5.15;;;;;;;10.64;60.43;97838.44;10361618;28;20131;-52
2023/05/11 02:54:28;;;;;;;8.05;4.63;;;;;;;10.67;60.91;97863.50;10362157;28;20124;-52
2023/05/11 02:59:27;;;;;;;6.47;4.97;;;;;;;10.64;60.26;97863.53;10361153;28;20072;-52
2023/05/11 03:04:26;;;;;;;;;;;;;;;10.68;60.65;97860.03;10361639;28;20124;-50
2023/05/11 03:09:25;;;;;;;10.57;5.47;;;;;;;10.41;60.33;97817.66;10361475;28;19919;-51
2023/05/11 03:14:24;;;;;;;6.90;5.10;;;;;;;10.52;60.33;97818.53;10360877;28;20486;-53
2023/05/11 03:19:25;;;;;;;7.13;5.00;;;;;;;10.62;59.54;97853.13;10361887;28;20270;-51
2023/05/11 03:24:25;;;;;;;6.68;5.32;;;;;;;10.54;60.05;97854.84;10362100;28;20111;-51
2023/05/11 03:29:26;;;;;;;7.28;4.47;;;;;;;10.54;59.36;97863.50;10361171;28;20087;-51
2023/05/11 03:34:25;;;;;;;6.30;4.78;;;;;;;10.41;59.26;97854.84;10361222;28;20506;-52
2023/05/11 03:39:26;;;;;;;9.95;5.00;;;;;;;10.51;59.92;97873.88;10360851;28;20108;-52
2023/05/11 03:44:26;;;;;;;7.43;5.13;;;;;;;10.57;58.75;97865.25;10360405;28;20546;-52
2023/05/11 03:49:26;;;;;;;6.60;4.57;;;;;;;10.66;58.56;97861.75;10361048;28;20132;-52
2023/05/11 03:54:25;;;;;;;6.55;4.68;;;;;;;10.74;57.86;97870.44;10360236;28;20123;-52
2023/05/11 03:59:25;;;;;;;6.88;4.90;;;;;;;10.77;57.37;97873.88;10359745;28;20069;-52
2023/05/11 04:04:31;;;;;;;7.10;4.57;;;;;;;10.87;57.94;97877.41;10360580;28;20139;-53
2023/05/11 04:09:30;;;;;;;8.27;4.68;;;;;;;11.07;57.27;97879.09;10359695;28;20115;-51
2023/05/11 04:14:29;;;;;;;7.07;4.82;;;;;;;11.03;57.93;97883.44;10360053;28;20112;-52
2023/05/11 04:19:28;;;;;;;6.97;4.65;;;;;;;10.99;56.87;97887.78;10359444;28;20033;-53
2023/05/11 04:24:26;;;;;;;7.53;4.20;;;;;;;11.15;56.47;97892.94;10358596;28;20139;-51
2023/05/11 04:29:26;;;;;;;7.57;4.65;;;;;;;11.07;56.88;97871.31;10359265;28;20059;-51
2023/05/11 04:34:25;;;;;;;7.60;5.15;;;;;;;11.29;57.02;97903.31;10359139;28;20124;-52
2023/05/11 04:39:25;;;;;;;8.20;4.38;;;;;;;11.36;56.05;97897.25;10359156;28;20064;-52
2023/05/11 04:44:24;;;;;;;7.28;4.63;;;;;;;11.39;55.81;97892.06;10357261;28;20132;-52
2023/05/11 04:49:23;;;;;;;;;;;;;;;11.35;56.69;97895.53;10359534;28;20072;-52
2023/05/11 04:54:22;;;;;;;9.27;4.38;;;;;;;11.35;56.39;97904.16;10358824;28;20019;-52
2023/05/11 04:59:21;;;;;;;7.25;5.07;;;;;;;11.55;56.10;97906.75;10364550;28;20934;-52
2023/05/11 05:04:19;;;;;;;6.80;4.95;;;;;;;11.37;55.69;97892.03;10365294;28;20033;-52
2023/05/11 05:09:19;;;;;;;7.88;5.00;;;;;;;11.42;55.34;97894.63;10362640;28;20028;-51
2023/05/11 05:14:18;;;;;;;;;;;;;;;11.58;56.41;97900.66;10365232;28;20116;-52
2023/05/11 05:19:16;;;;;;;11.80;5.10;;;;;;;11.63;56.56;97917.97;10366191;28;19916;-52
2023/05/11 05:24:15;;;;;;;6.88;4.60;;;;;;;11.58;56.60;97918.88;10364800;28;20035;-50
2023/05/11 05:29:33;;;;;;;9.45;5.10;;;;;;;11.78;56.43;97917.09;10364884;28;20036;-53
2023/05/11 05:34:32;;;;;;;6.85;4.70;;;;;;;11.83;55.44;97917.94;10360730;28;20128;-53
2023/05/11 05:39:31;;;;;;;12.25;4.88;;;;;;;11.43;56.11;97870.38;10364622;28;20021;-53
2023/05/11 05:44:30;;;;;;;6.68;4.60;;;;;;;11.77;55.44;97910.13;10362919;28;20047;-52
2023/05/11 05:49:29;;;;;;;8.27;5.00;;;;;;;11.89;55.20;97923.09;10363114;28;20192;-53
2023/05/11 05:54:27;;;;;;;;;;;;;;;11.94;55.60;97932.63;10363296;28;20137;-53
2023/05/11 05:59:26;;;;;;;9.77;4.97;;;;;;;12.00;55.52;97922.19;10361519;28;20003;-53
2023/05/11 06:04:25;;;;;;;;;;;;;;;12.15;55.62;97932.53;10358451;28;20119;-52
2023/05/11 06:09:24;;;;;;;8.15;4.47;;;;;;;12.48;55.01;97926.31;10356616;28;19920;-53
2023/05/11 06:14:23;;;;;;;7.80;5.22;;;;;;;12.35;54.59;97889.97;10363348;28;20522;-53
2023/05/11 06:19:22;;;;;;;;;;;;;;;12.72;53.88;97929.66;10364038;28;20486;-52
2023/05/11 06:24:21;;;;;;;7.55;4.72;;;;;;;12.50;54.00;97879.44;10362309;28;19927;-52
2023/05/11 06:29:21;;;;;;;;;;;;;;;13.11;53.47;97943.25;10360789;28;20124;-52
2023/05/11 06:34:20;;;;;;;8.07;4.60;;;;;;;13.03;52.84;97945.91;10361687;28;20043;-52
2023/05/11 06:39:19;;;;;;;6.57;4.82;;;;;;;13.22;52.63;97941.41;10362479;28;20075;-52
2023/05/11 06:44:18;;;;;;;;;;;;;;;13.36;51.81;97949.97;10363342;28;20096;-53
2023/05/11 06:49:17;;;;;;;7.05;4.40;;;;;;;13.57;51.44;97948.94;10362658;28;19916;-53
2023/05/11 06:54:16;;;;;;;7.13;4.07;;;;;;;13.76;51.09;97956.56;10361308;28;20116;-52
2023/05/11 06:59:15;;;;;;;;;;;;;;;13.77;50.58;97958.28;10361581;28;20033;-52
2023/05/11 07:04:13;;;;;;;6.32;3.95;;;;;;;14.10;50.81;97957.06;10363738;28;20391;-52
2023/05/11 07:09:12;;;;;;;;;;;;;;;14.29;49.83;97957.72;10365880;28;20514;-52
2023/05/11 07:14:11;;;;;;;8.38;4.25;;;;;;;14.59;48.77;97960.78;10364236;28;20740;-52
2023/05/11 07:19:10;;;;;;;;;;;;;;;14.70;48.68;97960.63;10365239;28;20762;-52
2023/05/11 07:24:09;;;;;;;5.20;3.63;;;;;;;14.61;48.94;97904.16;10363800;28;20375;-53
2023/05/11 07:29:07;;;;;;;;;;;;;;;15.25;47.69;97959.84;10363687;28;20761;-53
2023/05/11 07:34:06;;;;;;;5.82;3.38;;;;;;;15.43;47.78;97963.88;10363083;28;19916;-52
2023/05/11 07:39:05;;;;;;;;;;;;;;;15.50;48.22;97957.66;10363433;28;20032;-52
2023/05/11 07:44:04;;;;;;;8.30;3.83;;;;;;;15.82;45.82;97951.00;10363375;28;20769;-52
2023/05/11 07:49:03;;;;;;;9.55;3.72;;;;;;;16.07;45.23;97944.41;10363830;28;20087;-53
2023/05/11 07:54:02;;;;;;;7.78;4.30;;;;;;;16.06;44.83;97952.28;10363498;28;20075;-53
2023/05/11 07:59:01;;;;;;;7.18;4.07;;;;;;;16.25;45.11;97948.38;10363868;28;20463;-52
2023/05/11 08:04:00;;;;;;;8.57;4.05;;;;;;;16.26;44.20;97947.50;10359961;28;20486;-52
2023/05/11 08:08:59;;;;;;;;;;;;;;;16.49;44.88;97954.88;10359856;28;20413;-53
2023/05/11 08:13:58;;;;;;;5.13;3.90;;;;;;;16.64;44.43;97961.53;10359634;28;20007;-53
2023/05/11 08:18:57;;;;;;;11.57;4.63;;;;;;;16.89;44.01;97964.50;10361517;28;20032;-52
2023/05/11 08:23:56;;;;;;;7.43;3.75;;;;;;;17.18;43.21;97960.34;10361127;28;20053;-53
2023/05/11 08:28:55;;;;;;;9.68;6.13;;;;;;;17.63;42.15;97967.94;10361152;28;20120;-53
2023/05/11 08:33:54;;;;;;;10.88;6.68;;;;;;;17.69;42.26;97978.28;10367063;28;20112;-53
2023/05/11 08:38:53;;;;;;;8.25;4.32;;;;;;;17.86;41.07;97966.50;10369725;28;20078;-52
2023/05/11 08:43:56;;;;;;;4.80;3.88;;;;;;;18.14;39.91;97954.34;10369519;28;20110;-53
2023/05/11 08:48:57;;;;;;;5.35;3.13;;;;;;;18.44;39.59;97967.50;10363627;28;20106;-53
2023/05/11 08:53:57;;;;;;;15.77;3.92;;;;;;;18.88;38.96;97962.72;10363974;28;20470;-53
2023/05/11 08:58:56;;;;;;;5.85;3.33;;;;;;;18.97;38.68;97956.28;10367803;28;20116;-53
2023/05/11 09:03:56;;;;;;;6.18;3.40;;;;;;;19.31;39.10;97956.06;10367398;28;20116;-53
2023/05/11 09:08:56;;;;;;;5.90;3.30;;;;;;;19.30;38.14;97964.00;10367019;28;20136;-53
2023/05/11 09:13:56;;;;;;;8.32;3.50;;;;;;;19.37;37.72;97950.63;10361974;28;20108;-53
2023/05/11 09:18:59;;;;;;;6.25;3.20;;;;;;;19.48;37.67;97950.22;10370761;28;20128;-53
2023/05/11 09:23:58;;;;;;;5.28;3.45;;;;;;;19.73;37.14;97941.53;10364975;28;20140;-53
2023/05/11 09:28:58;;;;;;;9.77;4.80;;;;;;;19.99;37.84;97945.88;10364473;28;20272;-53
2023/05/11 09:34:18;;;;;;;3.45;2.97;;;;;;;20.27;36.76;97917.59;10365294;28;20079;-53
2023/05/11 09:39:26;;;;;;;10.20;3.88;;;;;;;20.44;35.28;97934.59;10365535;28;20522;-54
2023/05/11 09:44:30;;;;;;;20.10;4.68;;;;;;;20.66;35.42;97938.13;10363725;28;20577;-53
2023/05/11 09:49:29;;;;;;;12.82;4.47;;;;;;;20.53;36.24;97888.56;10364341;28;20735;-53
2023/05/11 09:54:28;;;;;;;25.55;5.28;;;;;;;21.06;36.08;97917.22;10365714;28;20357;-54
2023/05/11 09:59:41;;;;;;;18.75;4.55;;;;;;;21.32;35.67;97916.19;10364862;28;20106;-54
2023/05/11 10:04:40;;;;;;;8.18;3.22;;;;;;;21.35;35.23;97910.75;10363324;28;20128;-54
2023/05/11 10:09:39;;;;;;;23.05;4.72;;;;;;;21.59;35.56;97902.72;10363408;28;20032;-54
2023/05/11 10:14:38;;;;;;;6.47;3.30;;;;;;;21.86;35.64;97904.16;10364061;28;20472;-53
2023/05/11 10:19:37;;;;;;;4.20;2.83;;;;;;;21.95;34.71;97869.41;10362880;28;20552;-54
2023/05/11 10:24:37;;;;;;;13.50;9.85;;;;;;;21.57;31.52;97838.53;10362669;28;20121;-53
2023/05/11 10:29:36;;;;;;;4.07;3.05;;;;;;;21.69;33.95;97888.19;10359068;28;20124;-54
2023/05/11 10:34:38;;;;;;;4.57;3.08;;;;;;;21.97;36.15;97880.75;10358900;28;20111;-54
2023/05/11 10:39:39;;;;;;;4.25;2.95;;;;;;;22.04;33.10;97867.28;10361655;28;20115;-54
2023/05/11 10:44:49;;;;;;;6.03;3.28;;;;;;;22.47;34.48;97881.19;10360406;28;20496;-54
2023/05/11 10:50:16;;;;;;;5.60;3.00;;;;;;;22.95;32.63;97878.00;10361096;28;20076;-54
2023/05/11 10:55:41;;;;;;;4.72;3.25;;;;;;;22.57;31.80;97867.41;10361616;28;20140;-54
2023/05/11 11:00:49;;;;;;;5.43;3.38;;;;;;;22.69;31.49;97867.78;10360926;28;20067;-54
2023/05/11 11:05:48;;;;;;;3.90;3.40;;;;;;;21.69;31.39;97806.31;10359314;28;20563;-54
2023/05/11 11:10:50;;;;;;;4.38;2.80;;;;;;;22.28;32.63;97852.94;10356560;28;20045;-54
2023/05/11 11:15:52;;;;;;;10.10;3.83;;;;;;;22.43;32.28;97847.88;10360415;28;20120;-54
2023/05/11 11:20:56;;;;;;;15.18;4.35;;;;;;;21.91;32.14;97843.19;10360939;28;20140;-53
2023/05/11 11:25:55;;;;;;;8.43;4.53;;;;;;;21.72;31.63;97830.81;10360819;28;20545;-55
2023/05/11 11:31:33;;;;;;;6.93;3.67;;;;;;;21.78;31.92;97840.25;10362498;28;20123;-53
2023/05/11 11:36:53;;;;;;;7.80;4.68;;;;;;;22.05;32.67;97832.00;10275752;28;20070;-54
2023/05/11 11:42:06;;;;;;;6.45;3.85;;;;;;;21.95;31.31;97839.47;10349926;28;20065;-54
2023/05/11 11:47:18;;;;;;;6.80;4.22;;;;;;;21.77;32.68;97835.88;10364182;28;20068;-54
2023/05/11 11:52:29;;;;;;;4.55;3.90;;;;;;;21.43;31.96;97832.09;10364851;28;20092;-54
2023/05/11 11:57:28;;;;;;;7.55;5.50;;;;;;;21.45;32.92;97818.81;10360762;28;20120;-54
2023/05/11 12:02:27;;;;;;;4.22;3.08;;;;;;;21.45;32.71;97819.69;10359676;28;20144;-55
2023/05/11 12:07:32;;;;;;;4.95;3.35;;;;;;;21.80;31.97;97809.31;10367666;28;20045;-53
2023/05/11 12:12:32;;;;;;;5.82;3.42;;;;;;;21.97;32.36;97817.34;10370001;28;20087;-54
2023/05/11 12:17:33;;;;;;;3.53;3.00;;;;;;;21.60;32.01;97806.75;10371151;28;20529;-54
2023/05/11 12:22:35;;;;;;;3.45;3.03;;;;;;;22.08;32.17;97808.94;10372413;28;20083;-54
2023/05/11 12:27:34;;;;;;;4.32;3.35;;;;;;;22.07;32.33;97806.38;10373089;28;20528;-54
2023/05/11 12:32:32;;;;;;;5.70;3.30;;;;;;;22.07;32.31;97801.94;10371533;28;20477;-54
2023/05/11 12:37:31;;;;;;;5.28;3.28;;;;;;;20.60;32.53;97587.69;10370966;28;20469;-54
2023/05/11 12:42:30;;;;;;;4.55;3.13;;;;;;;21.78;31.91;97753.09;10371290;28;20411;-54
2023/05/11 12:47:30;;;;;;;4.18;2.75;;;;;;;22.22;32.53;97779.22;10370565;28;20140;-54
2023/05/11 12:52:29;;;;;;;3.13;2.83;;;;;;;22.42;33.24;97748.31;10366183;28;20118;-54
2023/05/11 12:57:30;;;;;;;7.35;3.10;;;;;;;23.02;33.75;97754.13;10366353;28;20032;-55
2023/05/11 13:02:29;;;;;;;3.70;2.72;;;;;;;23.34;31.89;97723.31;10362579;28;20145;-55
2023/05/11 13:07:27;;;;;;;6.85;3.63;;;;;;;22.58;31.87;97739.56;10375599;28;20499;-54
2023/05/11 13:12:28;;;;;;;8.48;3.80;;;;;;;22.51;31.56;97737.31;10370935;28;20120;-54
2023/05/11 13:17:30;;;;;;;5.43;3.58;;;;;;;22.41;31.52;97726.28;10367983;28;20075;-54
2023/05/11 13:22:29;;;;;;;4.47;3.40;;;;;;;21.65;32.15;97685.91;10366879;28;20072;-54
2023/05/11 13:27:28;;;;;;;5.40;3.38;;;;;;;21.61;32.45;97722.16;10368499;28;20025;-54
2023/05/11 13:32:27;;;;;;;5.07;3.50;;;;;;;21.54;33.29;97729.47;10367498;28;20071;-54
2023/05/11 13:37:26;;;;;;;6.30;4.28;;;;;;;21.31;33.36;97713.84;10367200;28;20052;-54
2023/05/11 13:42:25;;;;;;;4.43;3.67;;;;;;;21.11;33.91;97715.56;10367867;28;20065;-53
2023/05/11 13:47:24;;;;;;;6.35;4.20;;;;;;;20.49;34.98;97716.47;10368594;28;20036;-54
2023/05/11 13:52:23;;;;;;;6.50;4.22;;;;;;;20.20;36.14;97739.56;10367147;28;20061;-54
2023/05/11 13:57:22;;;;;;;6.60;3.90;;;;;;;19.59;37.08;97740.19;10368266;28;20116;-53
2023/05/11 14:02:21;;;;;;;6.25;4.10;;;;;;;19.48;37.75;97737.03;10367505;28;20020;-54
2023/05/11 14:07:20;;;;;;;5.07;3.90;;;;;;;19.61;37.44;97732.22;10365042;28;20041;-54
2023/05/11 14:12:19;;;;;;;6.30;4.15;;;;;;;19.66;37.18;97738.19;10367680;28;20067;-54
2023/05/11 14:17:18;;;;;;;7.93;5.10;;;;;;;19.91;38.55;97739.84;10367142;28;20108;-54
2023/05/11 14:22:17;;;;;;;7.28;3.88;;;;;;;20.26;39.51;97731.44;10366356;28;20811;-53
2023/05/11 14:27:16;;;;;;;4.28;2.90;;;;;;;20.35;38.67;97742.50;10367419;28;20431;-53
2023/05/11 14:32:15;;;;;;;4.97;2.70;;;;;;;20.07;38.49;97714.63;10364019;28;20032;-54
2023/05/11 14:37:14;;;;;;;7.63;3.05;;;;;;;20.01;38.57;97741.22;10366056;28;20559;-54
2023/05/11 14:42:13;;;;;;;5.90;2.80;;;;;;;19.83;38.57;97738.38;10367102;28;20067;-54
2023/05/11 14:47:13;;;;;;;16.23;11.02;;;;;;;19.79;39.81;97736.81;10366167;28;20646;-55
2023/05/11 14:52:18;;;;;;;4.45;3.13;;;;;;;19.86;39.64;97722.47;10398305;28;20452;-53
2023/05/11 14:57:17;;;;;;;5.20;2.97;;;;;;;20.02;39.38;97735.03;10399564;28;20060;-54
2023/05/11 15:02:16;;;;;;;6.40;2.70;;;;;;;20.15;39.06;97738.91;10398863;28;20056;-53
2023/05/11 15:07:15;;;;;;;7.72;2.95;;;;;;;19.76;39.48;97741.31;10394356;28;20103;-53
2023/05/11 15:12:14;;;;;;;5.95;2.80;;;;;;;19.14;40.08;97711.13;10394533;28;20104;-53
2023/05/11 15:17:13;;;;;;;7.00;2.67;;;;;;;19.00;40.09;97749.28;10391437;28;20120;-53
2023/05/11 15:22:12;;;;;;;7.10;3.10;;;;;;;18.70;41.35;97750.34;10397148;28;20021;-53
2023/05/11 15:27:11;;;;;;;6.10;2.80;;;;;;;18.42;41.55;97753.84;10394181;28;20041;-53
2023/05/11 15:32:14;;;;;;;7.25;3.20;;;;;;;17.90;41.76;97755.50;10397992;28;20050;-53
2023/05/11 15:37:13;;;;;;;10.77;5.20;;;;;;;17.53;42.72;97761.81;10397356;28;20123;-53
2023/05/11 15:42:12;;;;;;;7.13;4.05;;;;;;;16.89;43.26;97693.69;10395226;28;20053;-52
2023/05/11 15:47:11;;;;;;;11.65;4.72;;;;;;;16.88;43.79;97750.47;10396648;28;20103;-52
2023/05/11 15:52:10;;;;;;;5.63;3.80;;;;;;;16.56;44.82;97763.50;10393526;28;20074;-52
2023/05/11 15:57:09;;;;;;;15.85;4.47;;;;;;;16.34;45.23;97756.16;10397196;28;20114;-53
2023/05/11 16:02:07;;;;;;;10.52;5.43;;;;;;;16.24;45.31;97754.69;10379944;28;20021;-52
2023/05/11 16:07:07;;;;;;;7.07;3.70;;;;;;;16.05;46.27;97764.72;10369258;28;20497;-52
2023/05/11 16:12:06;;;;;;;7.72;3.80;;;;;;;15.95;45.87;97763.19;10369855;28;20060;-52
2023/05/11 16:17:05;;;;;;;8.40;3.40;;;;;;;15.77;46.49;97753.97;10366024;28;20838;-52
2023/05/11 16:22:04;;;;;;;7.07;3.92;;;;;;;15.64;46.94;97766.44;10364742;28;20048;-52
2023/05/11 16:27:03;;;;;;;8.80;3.30;;;;;;;15.66;47.12;97769.88;10365369;28;20044;-52
2023/05/11 16:32:02;;;;;;;4.60;3.10;;;;;;;15.56;46.93;97761.38;10364659;28;20119;-52
2023/05/11 16:37:01;;;;;;;5.93;3.33;;;;;;;15.51;47.10;97775.47;10360849;28;20140;-52
2023/05/11 16:42:00;;;;;;;7.85;3.22;;;;;;;15.38;47.49;97777.44;10362767;28;20025;-52
2023/05/11 16:47:00;;;;;;;;;;;;;;;15.30;47.87;97774.13;10364248;28;20032;-51
2023/05/11 16:51:59;;;;;;;4.67;3.10;;;;;;;15.27;47.96;97777.63;10363528;28;20015;-53
2023/05/11 16:56:58;;;;;;;5.32;3.72;;;;;;;15.20;47.98;97776.03;10359423;28;20131;-52
2023/05/11 17:01:57;;;;;;;;;;;;;;;15.13;48.48;97782.28;10362632;28;20020;-52
2023/05/11 17:06:56;;;;;;;7.73;4.00;;;;;;;14.98;48.68;97788.66;10359868;28;20977;-52
2023/05/11 17:11:55;;;;;;;;;;;;;;;15.00;48.82;97779.91;10354551;28;20037;-53
2023/05/11 17:16:54;;;;;;;6.20;3.60;;;;;;;14.90;49.38;97774.88;10364452;28;19916;-52
2023/05/11 17:21:53;;;;;;;5.63;3.85;;;;;;;14.80;49.23;97782.00;10361803;28;20063;-52
2023/05/11 17:26:52;;;;;;;5.57;3.53;;;;;;;14.72;48.94;97770.84;10361003;28;20179;-52
2023/05/11 17:31:51;;;;;;;;;;;;;;;14.67;49.17;97783.09;10362977;28;20116;-52
2023/05/11 17:36:50;;;;;;;4.70;3.15;;;;;;;14.66;49.20;97791.78;10361413;28;20003;-52
2023/05/11 17:41:48;;;;;;;;;;;;;;;14.56;49.50;97798.91;10362053;28;20048;-52
2023/05/11 17:46:48;;;;;;;9.02;3.75;;;;;;;14.46;49.91;97798.22;10359728;28;19944;-52
2023/05/11 17:51:47;;;;;;;5.55;3.33;;;;;;;14.39;49.84;97800.06;10357400;28;20469;-52
2023/05/11 17:56:45;;;;;;;;;;;;;;;14.35;50.51;97803.59;10359099;28;20525;-52
2023/05/11 18:01:44;;;;;;;7.43;3.50;;;;;;;14.28;50.29;97804.56;10360780;28;19978;-51
2023/05/11 18:06:43;;;;;;;;;;;;;;;14.26;50.50;97803.72;10361217;28;20116;-52
2023/05/11 18:11:42;;;;;;;4.68;3.15;;;;;;;14.14;50.44;97809.13;10360636;28;20010;-52
2023/05/11 18:16:41;;;;;;;;;;;;;;;14.09;51.09;97806.59;10360983;28;20060;-52
2023/05/11 18:21:40;;;;;;;6.25;4.05;;;;;;;14.12;51.08;97816.13;10360561;28;19920;-52
2023/05/11 18:26:40;;;;;;;14.50;4.53;;;;;;;14.12;50.95;97811.75;10359646;28;20107;-52
2023/05/11 18:31:39;;;;;;;6.40;3.70;;;;;;;14.06;51.57;97817.06;10360517;28;20071;-51
2023/05/11 18:36:38;;;;;;;9.73;3.85;;;;;;;14.06;50.90;97822.28;10360402;28;20063;-52
2023/05/11 18:41:37;;;;;;;;;;;;;;;14.08;50.96;97824.91;10361226;28;20535;-54
2023/05/11 18:46:36;;;;;;;7.63;4.00;;;;;;;13.80;51.35;97778.31;10359487;28;19913;-52
2023/05/11 18:51:34;;;;;;;;;;;;;;;13.96;51.50;97825.91;10360846;28;20077;-52
2023/05/11 18:56:33;;;;;;;8.50;3.78;;;;;;;13.98;51.31;97832.84;10359569;28;19913;-52
2023/05/11 19:01:33;;;;;;;;;;;;;;;13.82;51.91;97831.31;10359394;28;20517;-52
2023/05/11 19:06:33;;;;;;;9.13;3.72;;;;;;;13.86;51.95;97839.94;10359808;28;20020;-51
2023/05/11 19:11:31;;;;;;;7.38;4.00;;;;;;;13.90;51.90;97832.06;10358770;28;20120;-51
2023/05/11 19:16:34;;;;;;;;;;;;;;;13.85;52.21;97833.88;10359310;28;20043;-52
2023/05/11 19:21:38;;;;;;;6.10;4.07;;;;;;;13.79;52.16;97833.94;10358402;28;19947;-52
2023/05/11 19:26:38;;;;;;;8.02;4.13;;;;;;;13.71;52.40;97817.53;10359705;28;20127;-51
2023/05/11 19:31:37;;;;;;;7.05;3.90;;;;;;;13.74;52.32;97838.38;10358751;28;20502;-52
2023/05/11 19:36:35;;;;;;;;;;;;;;;13.62;53.05;97835.91;10363653;28;20900;-52
2023/05/11 19:41:34;;;;;;;14.30;4.00;;;;;;;13.60;52.35;97835.06;10366344;28;19987;-51
2023/05/11 19:46:33;;;;;;;5.82;4.07;;;;;;;13.61;52.45;97828.94;10366217;28;20079;-52
2023/05/11 19:51:32;;;;;;;5.70;3.72;;;;;;;13.56;52.58;97834.22;10366145;28;20127;-52
2023/05/11 19:56:31;;;;;;;7.97;4.10;;;;;;;13.42;52.68;97821.34;10365705;28;20722;-51
2023/05/11 20:01:30;;;;;;;;;;;;;;;13.42;53.25;97834.38;10310352;28;20519;-51
2023/05/11 20:06:29;;;;;;;6.38;4.15;;;;;;;13.47;52.61;97840.38;10283840;28;19948;-52
2023/05/11 20:11:30;;;;;;;7.57;4.20;;;;;;;13.40;53.03;97843.06;10283740;28;20117;-52
2023/05/11 20:16:29;;;;;;;5.75;4.18;;;;;;;13.33;53.11;97844.91;10284018;28;20096;-52
2023/05/11 20:21:28;;;;;;;6.45;4.30;;;;;;;13.29;53.38;97849.25;10283436;28;20065;-52
2023/05/11 20:26:27;;;;;;;;;;;;;;;13.29;53.09;97848.41;10284752;28;20128;-52
2023/05/11 20:31:26;;;;;;;7.10;4.22;;;;;;;13.20;53.31;97838.06;10283748;28;19918;-52
2023/05/11 20:36:25;;;;;;;9.50;4.57;;;;;;;13.12;52.94;97843.38;10273299;28;20500;-53
2023/05/11 20:41:23;;;;;;;;;;;;;;;13.13;53.06;97848.53;10276674;28;20065;-51
2023/05/11 20:46:22;;;;;;;6.60;3.63;;;;;;;12.99;53.24;97844.34;10278077;28;19925;-50
2023/05/11 20:51:22;;;;;;;10.50;4.25;;;;;;;12.92;53.48;97856.56;10280054;28;20049;-51
2023/05/11 20:56:21;;;;;;;7.13;3.83;;;;;;;13.01;53.04;97851.28;10279275;28;20516;-52
2023/05/11 21:01:21;;;;;;;7.53;3.72;;;;;;;12.92;53.45;97864.38;10279242;28;20126;-52
2023/05/11 21:06:20;;;;;;;6.57;3.70;;;;;;;12.86;52.98;97848.78;10280602;28;20128;-52
2023/05/11 21:11:19;;;;;;;;;;;;;;;12.86;52.77;97857.50;10280030;28;20128;-52
2023/05/11 21:16:18;;;;;;;5.13;3.15;;;;;;;12.81;52.71;97855.78;10279901;28;20218;-52
2023/05/11 21:21:17;;;;;;;8.88;4.05;;;;;;;12.72;53.07;97859.34;10279201;28;20427;-52
2023/05/11 21:26:16;;;;;;;5.82;3.08;;;;;;;12.69;53.55;97860.22;10279045;28;20165;-52
2023/05/11 21:31:15;;;;;;;8.90;3.20;;;;;;;12.62;52.80;97849.88;10278869;28;20026;-52
2023/05/11 21:36:14;;;;;;;;;;;;;;;12.53;53.46;97858.59;10280715;28;20204;-52
2023/05/11 21:41:13;;;;;;;4.88;3.22;;;;;;;12.32;53.20;97846.59;10277918;28;20022;-52
2023/05/11 21:46:12;;;;;;;10.32;3.40;;;;;;;12.18;53.70;97853.59;10278447;28;20120;-52
2023/05/11 21:51:11;;;;;;;;;;;;;;;12.26;54.14;97864.84;10278862;28;20042;-51
2023/05/11 21:56:10;;;;;;;7.55;3.42;;;;;;;12.27;54.12;97864.88;10278854;28;20313;-52
2023/05/11 22:01:09;;;;;;;8.20;3.70;;;;;;;11.93;54.38;97837.28;10277334;28;20136;-50
2023/05/11 22:06:08;;;;;;;5.97;3.60;;;;;;;11.73;54.75;97816.56;10278289;28;20049;-52
2023/05/11 22:11:07;;;;;;;7.40;3.55;;;;;;;12.03;54.87;97868.41;10275567;28;20229;-51
2023/05/11 22:16:06;;;;;;;9.68;3.92;;;;;;;11.85;54.96;97861.59;10275254;28;20132;-52
2023/05/11 22:21:05;;;;;;;4.78;3.13;;;;;;;11.85;55.08;97884.09;10273678;28;20144;-52
2023/05/11 22:26:04;;;;;;;5.10;3.85;;;;;;;11.65;55.39;97876.38;10277108;28;20113;-52
2023/05/11 22:31:03;;;;;;;8.85;3.47;;;;;;;11.61;55.47;97883.31;10277707;28;20026;-51
2023/05/11 22:36:02;;;;;;;6.38;4.13;;;;;;;11.66;55.19;97891.97;10280234;28;20553;-52
2023/05/11 22:41:01;;;;;;;;;;;;;;;11.46;55.64;97884.22;10279313;28;20464;-51
2023/05/11 22:46:03;;;;;;;6.50;3.20;;;;;;;11.44;55.75;97878.16;10279403;28;19997;-50
2023/05/11 22:51:05;;;;;;;5.25;3.28;;;;;;;11.38;56.15;97872.97;10278651;28;20117;-52
2023/05/11 22:56:06;;;;;;;5.85;3.60;;;;;;;10.87;56.25;97820.28;10279401;28;21186;-52
2023/05/11 23:01:05;;;;;;;5.78;3.58;;;;;;;11.29;56.16;97870.44;10278676;28;20527;-51
2023/05/11 23:06:04;;;;;;;7.95;3.72;;;;;;;11.28;55.68;97879.06;10279089;28;20543;-52
2023/05/11 23:11:03;;;;;;;9.35;3.63;;;;;;;11.29;55.49;97886.00;10281280;28;20127;-52
2023/05/11 23:16:03;;;;;;;;;;;;;;;11.19;55.62;97876.50;10287080;28;20579;-52
2023/05/11 23:21:02;;;;;;;6.53;3.13;;;;;;;11.16;55.57;97876.50;10286351;28;20007;-51
2023/05/11 23:26:01;;;;;;;7.40;3.40;;;;;;;10.43;55.21;97764.06;10286500;28;20029;-51
2023/05/11 23:30:59;;;;;;;4.03;2.90;;;;;;;11.17;55.82;97865.22;10286082;28;20037;-52
2023/05/11 23:35:59;;;;;;;6.85;3.45;;;;;;;11.18;54.88;97861.78;10285695;28;20034;-51